aviador You're here:

YMHB Decoded Metar

HOBART in AUSTRALIA
Report Time2018-05-20 22:33:00
UTC Time2018-05-20 23:05:14
Flight Rules vfr VFR
Wind320° at 18 Gusting to 29 kt
W.Decomp.*RWY 30: 18.0 kt HW 1.3 kt RCW
W.Rank320° ranks 3
Current wind is above 320° avg. (9.6)
Visibility9999 m
Phenomena:N/A
Clouds:N/A
Expected CloudBase > 3,600 ft AGL from Temp-Dew spread
CeilingNone
Temp12°C (ISA -3)
Dew Point03°C (54% RH)
AAT4.0°C
QNH1009 hPa
Density Alt-7 ft
Elevation89 ft
Report Wrong Elevation
Raw Report
YMHB 202233Z AUTO 32018G29KT 9999 // NCD 12/03 Q1009 RF00/0/001/4=

Extra information for YMHB:More info

Metar Taf Metar & Taf Last 4 Metars F.Rules Stats Wind Profile Meteogram Temp Stats Airport Information Weather charts Add Link Nearby VenuesMetar ALERT Operation Metar Decoded Social comments